KLM526B VOBL-VOMM
Flight info
| Callsign | KLM526B |
|---|---|
| Flight time | 0h 42m |
| Altitude | 19000 |
| Route | BIA W116 MMV |
| Aircraft | B738/M-SDGIJ1LRWY/SB1 |
Departure
| Time | 2026-04-28 08:59 |
|---|---|
| Airport | Kempegowda International Airport Bengaluru (VOBL) |
Arrival
| Time | 2026-04-28 09:42 |
|---|---|
| Airport | Chennai International Airport (VOMM) |
| Time | Latitude | Longitude | Altitude | Speed | Heading |
|---|---|---|---|---|---|
| 2026-04-28 08:31 | 13.20325 | 77.72016 | 2946 ft | 0 kts | 0° |
| 2026-04-28 08:52 | 13.20320 | 77.72016 | 2946 ft | 1 kts | 335° |
| 2026-04-28 08:52 | 13.20307 | 77.72021 | 2946 ft | 2 kts | 0° |
| 2026-04-28 08:53 | 13.20292 | 77.72021 | 2946 ft | 2 kts | 358° |
| 2026-04-28 08:53 | 13.20277 | 77.72021 | 2947 ft | 2 kts | 358° |
| 2026-04-28 08:53 | 13.20265 | 77.72022 | 2947 ft | 1 kts | 357° |
| 2026-04-28 08:53 | 13.20259 | 77.72021 | 2947 ft | 0 kts | 59° |
| 2026-04-28 08:54 | 13.20257 | 77.72015 | 2947 ft | 0 kts | 97° |
| 2026-04-28 08:54 | 13.20258 | 77.72009 | 2947 ft | 0 kts | 91° |
| 2026-04-28 08:55 | 13.20258 | 77.72010 | 2947 ft | 0 kts | 91° |
| 2026-04-28 08:56 | 13.20257 | 77.72016 | 2947 ft | 4 kts | 94° |
| 2026-04-28 08:56 | 13.20254 | 77.72067 | 2946 ft | 8 kts | 94° |
| 2026-04-28 08:56 | 13.20289 | 77.72108 | 2945 ft | 8 kts | 13° |
| 2026-04-28 08:56 | 13.20356 | 77.72111 | 2943 ft | 10 kts | 2° |
| 2026-04-28 08:57 | 13.20429 | 77.72137 | 2940 ft | 13 kts | 70° |
| 2026-04-28 08:57 | 13.20432 | 77.72239 | 2937 ft | 15 kts | 87° |
| 2026-04-28 08:57 | 13.20521 | 77.72283 | 2934 ft | 16 kts | 0° |
| 2026-04-28 08:57 | 13.20646 | 77.72279 | 2930 ft | 18 kts | 339° |
| 2026-04-28 08:58 | 13.20685 | 77.72177 | 2930 ft | 13 kts | 269° |
| 2026-04-28 08:58 | 13.20685 | 77.72100 | 2931 ft | 12 kts | 270° |
| 2026-04-28 08:58 | 13.20687 | 77.71873 | 2931 ft | 60 kts | 270° |
| 2026-04-28 08:58 | 13.20693 | 77.71238 | 2934 ft | 117 kts | 270° |
| 2026-04-28 08:59 | 13.20699 | 77.70236 | 2984 ft | 162 kts | 271° |
| 2026-04-28 08:59 | 13.20725 | 77.68965 | 3149 ft | 186 kts | 277° |
| 2026-04-28 08:59 | 13.21022 | 77.67734 | 3725 ft | 179 kts | 289° |
| 2026-04-28 08:59 | 13.21398 | 77.66462 | 3999 ft | 187 kts | 279° |
| 2026-04-28 09:00 | 13.21651 | 77.65083 | 4187 ft | 204 kts | 288° |
| 2026-04-28 09:00 | 13.22208 | 77.63818 | 4708 ft | 198 kts | 310° |
| 2026-04-28 09:00 | 13.23310 | 77.62874 | 4906 ft | 210 kts | 327° |
| 2026-04-28 09:00 | 13.24450 | 77.61883 | 5196 ft | 222 kts | 312° |
| 2026-04-28 09:01 | 13.25372 | 77.60557 | 5497 ft | 233 kts | 302° |
| 2026-04-28 09:01 | 13.26213 | 77.59075 | 5738 ft | 247 kts | 302° |
| 2026-04-28 09:01 | 13.27099 | 77.57499 | 5948 ft | 263 kts | 302° |
| 2026-04-28 09:01 | 13.27742 | 77.56372 | 6152 ft | 274 kts | 301° |
| 2026-04-28 09:02 | 13.28683 | 77.53872 | 6665 ft | 293 kts | 279° |
| 2026-04-28 09:02 | 13.28560 | 77.51778 | 7208 ft | 299 kts | 255° |
| 2026-04-28 09:02 | 13.27700 | 77.49825 | 7865 ft | 301 kts | 237° |
| 2026-04-28 09:02 | 13.26375 | 77.48153 | 8533 ft | 302 kts | 221° |
| 2026-04-28 09:03 | 13.24656 | 77.46912 | 9195 ft | 303 kts | 209° |
| 2026-04-28 09:03 | 13.22789 | 77.45868 | 9853 ft | 307 kts | 207° |
| 2026-04-28 09:03 | 13.20891 | 77.44844 | 10394 ft | 316 kts | 207° |
| 2026-04-28 09:03 | 13.18822 | 77.43825 | 10800 ft | 330 kts | 200° |
| 2026-04-28 09:04 | 13.16562 | 77.43237 | 10958 ft | 341 kts | 182° |
| 2026-04-28 09:04 | 13.14228 | 77.43538 | 10964 ft | 338 kts | 158° |
| 2026-04-28 09:04 | 13.12190 | 77.44720 | 10972 ft | 334 kts | 137° |
| 2026-04-28 09:04 | 13.10651 | 77.46501 | 10963 ft | 329 kts | 122° |
| 2026-04-28 09:05 | 13.09413 | 77.48508 | 10958 ft | 329 kts | 119° |
| 2026-04-28 09:05 | 13.08225 | 77.50520 | 10960 ft | 330 kts | 119° |
| 2026-04-28 09:05 | 13.07072 | 77.52588 | 10957 ft | 328 kts | 114° |
| 2026-04-28 09:05 | 13.06342 | 77.54803 | 10956 ft | 326 kts | 98° |
| 2026-04-28 09:06 | 13.06113 | 77.57104 | 10959 ft | 324 kts | 91° |
| 2026-04-28 09:06 | 13.06043 | 77.59428 | 10957 ft | 324 kts | 90° |
| 2026-04-28 09:06 | 13.05987 | 77.61758 | 10957 ft | 323 kts | 90° |
| 2026-04-28 09:06 | 13.05902 | 77.64066 | 10956 ft | 323 kts | 91° |
| 2026-04-28 09:07 | 13.05785 | 77.66401 | 10957 ft | 323 kts | 91° |
| 2026-04-28 09:07 | 13.05653 | 77.68707 | 10955 ft | 322 kts | 92° |
| 2026-04-28 09:07 | 13.05562 | 77.70219 | 10956 ft | 322 kts | 92° |
| 2026-04-28 09:07 | 13.05374 | 77.73306 | 10955 ft | 322 kts | 92° |
| 2026-04-28 09:08 | 13.05281 | 77.74837 | 10957 ft | 323 kts | 92° |
| 2026-04-28 09:08 | 13.05093 | 77.77943 | 11155 ft | 323 kts | 92° |
| 2026-04-28 09:08 | 13.05001 | 77.79469 | 11273 ft | 323 kts | 92° |
| 2026-04-28 09:08 | 13.04812 | 77.82584 | 11513 ft | 325 kts | 92° |
| 2026-04-28 09:09 | 13.04719 | 77.84126 | 11634 ft | 326 kts | 92° |
| 2026-04-28 09:09 | 13.04528 | 77.87251 | 11873 ft | 326 kts | 92° |
| 2026-04-28 09:09 | 13.04433 | 77.88818 | 11991 ft | 326 kts | 92° |
| 2026-04-28 09:09 | 13.04247 | 77.91902 | 12215 ft | 325 kts | 91° |
| 2026-04-28 09:10 | 13.04106 | 77.94229 | 12397 ft | 326 kts | 91° |
| 2026-04-28 09:10 | 13.03963 | 77.96575 | 12576 ft | 326 kts | 92° |
| 2026-04-28 09:10 | 13.03821 | 77.98888 | 12752 ft | 326 kts | 91° |
| 2026-04-28 09:10 | 13.03677 | 78.01247 | 12931 ft | 326 kts | 91° |
| 2026-04-28 09:11 | 13.03536 | 78.03542 | 13105 ft | 327 kts | 91° |
| 2026-04-28 09:11 | 13.03390 | 78.05927 | 13282 ft | 331 kts | 92° |
| 2026-04-28 09:11 | 13.03245 | 78.08306 | 13462 ft | 332 kts | 92° |
| 2026-04-28 09:11 | 13.03099 | 78.10677 | 13643 ft | 332 kts | 92° |
| 2026-04-28 09:12 | 13.02951 | 78.13085 | 13820 ft | 336 kts | 92° |
| 2026-04-28 09:12 | 13.02802 | 78.15511 | 13997 ft | 337 kts | 92° |
| 2026-04-28 09:12 | 13.02652 | 78.17932 | 14176 ft | 337 kts | 92° |
| 2026-04-28 09:12 | 13.02504 | 78.20325 | 14354 ft | 340 kts | 92° |
| 2026-04-28 09:13 | 13.02352 | 78.22768 | 14528 ft | 340 kts | 92° |
| 2026-04-28 09:13 | 13.02201 | 78.25196 | 14707 ft | 341 kts | 92° |
| 2026-04-28 09:13 | 13.02049 | 78.27644 | 14888 ft | 343 kts | 92° |
| 2026-04-28 09:13 | 13.01895 | 78.30114 | 15064 ft | 343 kts | 92° |
| 2026-04-28 09:14 | 13.01741 | 78.32581 | 15237 ft | 343 kts | 92° |
| 2026-04-28 09:14 | 13.01589 | 78.35018 | 15407 ft | 346 kts | 93° |
| 2026-04-28 09:14 | 13.01434 | 78.37502 | 15586 ft | 347 kts | 93° |
| 2026-04-28 09:14 | 13.01277 | 78.40012 | 15765 ft | 350 kts | 93° |
| 2026-04-28 09:15 | 13.01121 | 78.42490 | 15935 ft | 351 kts | 93° |
| 2026-04-28 09:15 | 13.00961 | 78.45046 | 16112 ft | 352 kts | 93° |
| 2026-04-28 09:15 | 13.00805 | 78.47538 | 16285 ft | 354 kts | 93° |
| 2026-04-28 09:15 | 13.00643 | 78.50092 | 16463 ft | 355 kts | 93° |
| 2026-04-28 09:16 | 13.00482 | 78.52657 | 16637 ft | 358 kts | 94° |
| 2026-04-28 09:16 | 13.00319 | 78.55227 | 16809 ft | 359 kts | 94° |
| 2026-04-28 09:16 | 13.00157 | 78.57790 | 16983 ft | 359 kts | 94° |
| 2026-04-28 09:16 | 12.99993 | 78.60384 | 17164 ft | 361 kts | 94° |
| 2026-04-28 09:17 | 12.99826 | 78.63007 | 17346 ft | 360 kts | 94° |
| 2026-04-28 09:17 | 12.99662 | 78.65589 | 17522 ft | 364 kts | 94° |
| 2026-04-28 09:17 | 12.99495 | 78.68202 | 17696 ft | 363 kts | 94° |
| 2026-04-28 09:17 | 12.99330 | 78.70797 | 17869 ft | 367 kts | 94° |
| 2026-04-28 09:18 | 12.99162 | 78.73419 | 18043 ft | 365 kts | 94° |
| 2026-04-28 09:18 | 12.98994 | 78.76061 | 18226 ft | 370 kts | 94° |
| 2026-04-28 09:18 | 12.98826 | 78.78682 | 18398 ft | 368 kts | 94° |
| 2026-04-28 09:18 | 12.98655 | 78.81342 | 18579 ft | 371 kts | 94° |
| 2026-04-28 09:19 | 12.98484 | 78.84015 | 18758 ft | 373 kts | 94° |
| 2026-04-28 09:19 | 12.98316 | 78.86643 | 18823 ft | 376 kts | 94° |
| 2026-04-28 09:19 | 12.98143 | 78.89332 | 18818 ft | 372 kts | 94° |
| 2026-04-28 09:19 | 12.97973 | 78.91969 | 18820 ft | 370 kts | 94° |
| 2026-04-28 09:20 | 12.97801 | 78.94637 | 18819 ft | 373 kts | 94° |
| 2026-04-28 09:20 | 12.97628 | 78.97302 | 18811 ft | 371 kts | 94° |
| 2026-04-28 09:20 | 12.97456 | 78.99955 | 18806 ft | 373 kts | 94° |
| 2026-04-28 09:20 | 12.97282 | 79.02631 | 18797 ft | 370 kts | 94° |
| 2026-04-28 09:21 | 12.97111 | 79.05267 | 18802 ft | 371 kts | 94° |
| 2026-04-28 09:21 | 12.96902 | 79.07896 | 18801 ft | 373 kts | 96° |
| 2026-04-28 09:21 | 12.96506 | 79.10555 | 18792 ft | 372 kts | 102° |
| 2026-04-28 09:21 | 12.95925 | 79.13001 | 18795 ft | 369 kts | 105° |
| 2026-04-28 09:22 | 12.95158 | 79.15671 | 18783 ft | 371 kts | 107° |
| 2026-04-28 09:22 | 12.94382 | 79.18200 | 18786 ft | 371 kts | 107° |
| 2026-04-28 09:22 | 12.93603 | 79.20712 | 18780 ft | 370 kts | 107° |
| 2026-04-28 09:22 | 12.92819 | 79.23267 | 18776 ft | 373 kts | 107° |
| 2026-04-28 09:23 | 12.92036 | 79.25851 | 18763 ft | 370 kts | 107° |
| 2026-04-28 09:23 | 12.91272 | 79.28391 | 18770 ft | 369 kts | 107° |
| 2026-04-28 09:23 | 12.90511 | 79.30943 | 18763 ft | 370 kts | 107° |
| 2026-04-28 09:23 | 12.89749 | 79.33510 | 18758 ft | 370 kts | 107° |
| 2026-04-28 09:24 | 12.88986 | 79.36087 | 18755 ft | 370 kts | 107° |
| 2026-04-28 09:24 | 12.88239 | 79.38615 | 18749 ft | 369 kts | 107° |
| 2026-04-28 09:24 | 12.87481 | 79.41177 | 18760 ft | 371 kts | 107° |
| 2026-04-28 09:24 | 12.86733 | 79.43704 | 18754 ft | 367 kts | 107° |
| 2026-04-28 09:25 | 12.86018 | 79.46184 | 18745 ft | 349 kts | 104° |
| 2026-04-28 09:25 | 12.85582 | 79.48587 | 18740 ft | 334 kts | 95° |
| 2026-04-28 09:25 | 12.85627 | 79.50967 | 18747 ft | 335 kts | 82° |
| 2026-04-28 09:25 | 12.86120 | 79.53330 | 18739 ft | 338 kts | 74° |
| 2026-04-28 09:26 | 12.86862 | 79.55628 | 18744 ft | 337 kts | 70° |
| 2026-04-28 09:26 | 12.87561 | 79.57524 | 18736 ft | 337 kts | 69° |
| 2026-04-28 09:26 | 12.88419 | 79.59753 | 18745 ft | 337 kts | 69° |
| 2026-04-28 09:26 | 12.89287 | 79.62003 | 18738 ft | 336 kts | 69° |
| 2026-04-28 09:27 | 12.90993 | 79.66488 | 18743 ft | 337 kts | 69° |
| 2026-04-28 09:27 | 12.91830 | 79.68717 | 18742 ft | 337 kts | 70° |
| 2026-04-28 09:27 | 12.92659 | 79.70942 | 18478 ft | 337 kts | 70° |
| 2026-04-28 09:28 | 12.93504 | 79.73223 | 17845 ft | 342 kts | 70° |
| 2026-04-28 09:28 | 12.94352 | 79.75505 | 17284 ft | 343 kts | 70° |
| 2026-04-28 09:28 | 12.95206 | 79.77799 | 16771 ft | 343 kts | 70° |
| 2026-04-28 09:28 | 12.96048 | 79.80058 | 16415 ft | 338 kts | 70° |
| 2026-04-28 09:29 | 12.96873 | 79.82277 | 16014 ft | 332 kts | 70° |
| 2026-04-28 09:29 | 12.97700 | 79.84500 | 15537 ft | 331 kts | 70° |
| 2026-04-28 09:29 | 12.98519 | 79.86705 | 15060 ft | 329 kts | 69° |
| 2026-04-28 09:29 | 12.99324 | 79.88870 | 14651 ft | 326 kts | 69° |
| 2026-04-28 09:30 | 13.00126 | 79.91038 | 14268 ft | 322 kts | 69° |
| 2026-04-28 09:30 | 13.00911 | 79.93153 | 13908 ft | 317 kts | 69° |
| 2026-04-28 09:30 | 13.01686 | 79.95244 | 13498 ft | 314 kts | 69° |
| 2026-04-28 09:30 | 13.02465 | 79.97343 | 13087 ft | 311 kts | 69° |
| 2026-04-28 09:31 | 13.03228 | 79.99399 | 12664 ft | 308 kts | 69° |
| 2026-04-28 09:31 | 13.03983 | 80.01439 | 12235 ft | 306 kts | 69° |
| 2026-04-28 09:31 | 13.04735 | 80.03465 | 11918 ft | 299 kts | 69° |
| 2026-04-28 09:31 | 13.05459 | 80.05420 | 11594 ft | 294 kts | 69° |
| 2026-04-28 09:32 | 13.06182 | 80.07375 | 11083 ft | 296 kts | 69° |
| 2026-04-28 09:32 | 13.06912 | 80.09345 | 10855 ft | 287 kts | 69° |
| 2026-04-28 09:32 | 13.07601 | 80.11206 | 10626 ft | 279 kts | 69° |
| 2026-04-28 09:32 | 13.08293 | 80.13075 | 10224 ft | 278 kts | 69° |
| 2026-04-28 09:33 | 13.08977 | 80.14926 | 9836 ft | 276 kts | 69° |
| 2026-04-28 09:33 | 13.09647 | 80.16735 | 9466 ft | 274 kts | 69° |
| 2026-04-28 09:33 | 13.10328 | 80.18578 | 9058 ft | 273 kts | 69° |
| 2026-04-28 09:33 | 13.11003 | 80.20399 | 8669 ft | 273 kts | 69° |
| 2026-04-28 09:34 | 13.11676 | 80.22221 | 8248 ft | 273 kts | 69° |
| 2026-04-28 09:34 | 13.12339 | 80.24016 | 8090 ft | 263 kts | 69° |
| 2026-04-28 09:34 | 13.12969 | 80.25725 | 7931 ft | 254 kts | 69° |
| 2026-04-28 09:34 | 13.13587 | 80.27377 | 7792 ft | 245 kts | 68° |
| 2026-04-28 09:35 | 13.14212 | 80.28986 | 7673 ft | 234 kts | 68° |
| 2026-04-28 09:35 | 13.14810 | 80.30508 | 7540 ft | 226 kts | 68° |
| 2026-04-28 09:35 | 13.15385 | 80.31979 | 7303 ft | 224 kts | 68° |
| 2026-04-28 09:35 | 13.15951 | 80.33473 | 6999 ft | 225 kts | 71° |
| 2026-04-28 09:36 | 13.16236 | 80.35055 | 6655 ft | 228 kts | 94° |
| 2026-04-28 09:36 | 13.15665 | 80.36556 | 6295 ft | 235 kts | 131° |
| 2026-04-28 09:36 | 13.14268 | 80.37406 | 5976 ft | 238 kts | 166° |
| 2026-04-28 09:36 | 13.12610 | 80.37566 | 5708 ft | 237 kts | 178° |
| 2026-04-28 09:37 | 13.10961 | 80.37601 | 5466 ft | 234 kts | 177° |
| 2026-04-28 09:37 | 13.09335 | 80.37683 | 5147 ft | 236 kts | 177° |
| 2026-04-28 09:37 | 13.07658 | 80.37571 | 4593 ft | 248 kts | 193° |
| 2026-04-28 09:37 | 13.06239 | 80.36737 | 4142 ft | 250 kts | 225° |
| 2026-04-28 09:38 | 13.05457 | 80.35166 | 3643 ft | 252 kts | 257° |
| 2026-04-28 09:38 | 13.05229 | 80.33389 | 3223 ft | 248 kts | 258° |
| 2026-04-28 09:38 | 13.04753 | 80.31724 | 2788 ft | 243 kts | 245° |
| 2026-04-28 09:38 | 13.04044 | 80.30184 | 2341 ft | 231 kts | 242° |
| 2026-04-28 09:39 | 13.03472 | 80.28752 | 1994 ft | 202 kts | 246° |
| 2026-04-28 09:39 | 13.03026 | 80.27460 | 1792 ft | 190 kts | 245° |
| 2026-04-28 09:39 | 13.02550 | 80.26211 | 1565 ft | 181 kts | 242° |
| 2026-04-28 09:39 | 13.02111 | 80.25068 | 1326 ft | 163 kts | 244° |
| 2026-04-28 09:40 | 13.01731 | 80.24048 | 1131 ft | 151 kts | 242° |
| 2026-04-28 09:40 | 13.01342 | 80.23053 | 959 ft | 148 kts | 243° |
| 2026-04-28 09:40 | 13.00974 | 80.22065 | 775 ft | 149 kts | 244° |
| 2026-04-28 09:40 | 13.00604 | 80.21071 | 594 ft | 148 kts | 243° |
| 2026-04-28 09:41 | 13.00221 | 80.20084 | 405 ft | 150 kts | 243° |
| 2026-04-28 09:41 | 12.99838 | 80.19102 | 279 ft | 147 kts | 245° |
| 2026-04-28 09:41 | 12.99504 | 80.18186 | 65 ft | 135 kts | 243° |
| 2026-04-28 09:41 | 12.99174 | 80.17338 | 45 ft | 137 kts | 246° |
| 2026-04-28 09:42 | 12.98829 | 80.16447 | 46 ft | 108 kts | 251° |
| 2026-04-28 09:42 | 12.98629 | 80.15904 | 43 ft | 48 kts | 251° |
| 2026-04-28 09:42 | 12.98532 | 80.15631 | 45 ft | 43 kts | 248° |
| 2026-04-28 09:42 | 12.98427 | 80.15376 | 46 ft | 30 kts | 205° |
| 2026-04-28 09:43 | 12.98379 | 80.15454 | 47 ft | 8 kts | 69° |